createdAt,value
2017-05-09T00:00:14.288Z,954.85
2017-05-09T00:01:12.575Z,954.80
2017-05-09T00:02:12.792Z,954.82
2017-05-09T00:03:12.036Z,954.81
2017-05-09T00:04:12.730Z,954.82
2017-05-09T00:05:13.385Z,954.81
2017-05-09T00:06:13.113Z,954.78
2017-05-09T00:07:11.157Z,954.81
2017-05-09T00:08:12.215Z,954.80
2017-05-09T00:09:14.892Z,954.80
2017-05-09T00:10:13.784Z,954.83
2017-05-09T00:11:12.795Z,954.79
2017-05-09T00:12:12.518Z,954.76
2017-05-09T00:13:13.337Z,954.76
2017-05-09T00:14:13.597Z,954.78
2017-05-09T00:15:15.671Z,954.78
2017-05-09T00:16:13.612Z,954.80
2017-05-09T00:17:13.485Z,954.84
2017-05-09T00:18:14.261Z,954.82
2017-05-09T00:19:12.299Z,954.80
2017-05-09T00:20:10.282Z,954.81
2017-05-09T00:21:12.745Z,954.84
2017-05-09T00:22:11.090Z,954.85
2017-05-09T00:23:13.050Z,954.86
2017-05-09T00:24:12.655Z,954.85
2017-05-09T00:25:12.921Z,954.84
2017-05-09T00:26:09.855Z,954.85
2017-05-09T00:27:14.282Z,954.81
2017-05-09T00:28:13.435Z,954.80
2017-05-09T00:29:10.751Z,954.78
2017-05-09T00:30:12.264Z,954.81
2017-05-09T00:31:12.926Z,954.78
2017-05-09T00:32:13.520Z,954.77
2017-05-09T00:33:12.974Z,954.80
2017-05-09T00:34:12.614Z,954.82
2017-05-09T00:35:12.782Z,954.77
2017-05-09T00:36:12.225Z,954.78
2017-05-09T00:37:13.653Z,954.77
2017-05-09T00:38:13.485Z,954.74
2017-05-09T00:39:11.423Z,954.71
2017-05-09T00:40:13.985Z,954.71
2017-05-09T00:41:12.681Z,954.70
2017-05-09T00:42:14.302Z,954.66
2017-05-09T00:43:10.535Z,954.68
2017-05-09T00:44:12.772Z,954.67
2017-05-09T00:45:11.700Z,954.61
2017-05-09T00:46:11.400Z,954.62
2017-05-09T00:47:12.221Z,954.61
2017-05-09T00:48:12.362Z,954.57
2017-05-09T00:49:12.816Z,954.56
2017-05-09T00:50:11.914Z,954.53
2017-05-09T00:51:11.997Z,954.50
2017-05-09T00:52:12.562Z,954.42
2017-05-09T00:53:13.703Z,954.44
2017-05-09T00:54:13.569Z,954.44
2017-05-09T00:55:13.327Z,954.50
2017-05-09T00:56:10.719Z,954.58
2017-05-09T00:57:11.782Z,954.58
2017-05-09T00:58:10.005Z,954.55
2017-05-09T00:59:11.038Z,954.58
2017-05-09T01:00:10.806Z,954.59
2017-05-09T01:01:12.209Z,954.59
2017-05-09T01:02:13.855Z,954.56
2017-05-09T01:03:11.994Z,954.49
2017-05-09T01:04:10.969Z,954.54
2017-05-09T01:05:12.793Z,954.51
2017-05-09T01:06:12.806Z,954.50
2017-05-09T01:07:11.865Z,954.46
2017-05-09T01:08:12.108Z,954.49
2017-05-09T01:09:12.521Z,954.45
2017-05-09T01:10:11.481Z,954.45
2017-05-09T01:11:13.246Z,954.49
2017-05-09T01:12:13.141Z,954.47
2017-05-09T01:13:11.265Z,954.48
2017-05-09T01:14:09.710Z,954.48
2017-05-09T01:15:12.223Z,954.50
2017-05-09T01:16:12.419Z,954.50
2017-05-09T01:17:13.486Z,954.50
2017-05-09T01:18:14.939Z,954.51
2017-05-09T01:19:12.598Z,954.52
2017-05-09T01:20:10.840Z,954.51
2017-05-09T01:21:12.804Z,954.49
2017-05-09T01:22:12.614Z,954.54
2017-05-09T01:23:13.454Z,954.54
2017-05-09T01:24:13.083Z,954.48
2017-05-09T01:25:13.930Z,954.55
2017-05-09T01:26:12.827Z,954.55
2017-05-09T01:27:12.606Z,954.54
2017-05-09T01:28:12.788Z,954.51
2017-05-09T01:29:11.992Z,954.50
2017-05-09T01:30:13.216Z,954.52
2017-05-09T01:31:12.466Z,954.55
2017-05-09T01:32:13.541Z,954.54
2017-05-09T01:33:14.311Z,954.53
2017-05-09T01:34:12.790Z,954.55
2017-05-09T01:35:10.985Z,954.52
2017-05-09T01:36:11.343Z,954.56
2017-05-09T01:37:13.230Z,954.49
2017-05-09T01:38:12.410Z,954.49
2017-05-09T01:39:15.035Z,954.48
2017-05-09T01:40:12.776Z,954.45
2017-05-09T01:41:11.043Z,954.43
2017-05-09T01:42:10.872Z,954.46
2017-05-09T01:43:13.785Z,954.49
2017-05-09T01:44:11.139Z,954.50
2017-05-09T01:45:12.471Z,954.48
2017-05-09T01:46:13.868Z,954.51
2017-05-09T01:47:11.124Z,954.58
2017-05-09T01:48:13.923Z,954.59
2017-05-09T01:49:13.689Z,954.59
2017-05-09T01:50:13.527Z,954.60
2017-05-09T01:51:13.481Z,954.62
2017-05-09T01:52:12.505Z,954.60
2017-05-09T01:53:10.779Z,954.61
2017-05-09T01:54:12.502Z,954.62
2017-05-09T01:55:13.485Z,954.60
2017-05-09T01:56:13.801Z,954.57
2017-05-09T01:57:12.931Z,954.58
2017-05-09T01:58:11.026Z,954.58
2017-05-09T01:59:13.346Z,954.58
2017-05-09T02:00:13.046Z,954.57
2017-05-09T02:01:12.358Z,954.58
2017-05-09T02:02:12.548Z,954.59
2017-05-09T02:03:12.694Z,954.56
2017-05-09T02:04:12.466Z,954.56
2017-05-09T02:05:12.642Z,954.53
2017-05-09T02:06:13.415Z,954.55
2017-05-09T02:07:13.336Z,954.52
2017-05-09T02:08:12.981Z,954.50
2017-05-09T02:09:12.803Z,954.45
2017-05-09T02:10:12.210Z,954.47
2017-05-09T02:11:13.115Z,954.48
2017-05-09T02:12:12.212Z,954.44
2017-05-09T02:13:13.064Z,954.46
2017-05-09T02:14:12.697Z,954.46
2017-05-09T02:15:12.897Z,954.49
2017-05-09T02:16:12.705Z,954.46
2017-05-09T02:17:14.646Z,954.43
2017-05-09T02:18:10.952Z,954.43
2017-05-09T02:19:13.934Z,954.47
2017-05-09T02:20:12.031Z,954.43
2017-05-09T02:21:13.004Z,954.40
2017-05-09T02:22:13.563Z,954.38
2017-05-09T02:23:12.944Z,954.37
2017-05-09T02:24:11.935Z,954.37
2017-05-09T02:25:12.559Z,954.36
2017-05-09T02:26:11.325Z,954.34
2017-05-09T02:27:12.825Z,954.36
2017-05-09T02:28:13.311Z,954.35
2017-05-09T02:29:12.588Z,954.32
2017-05-09T02:30:12.770Z,954.40
2017-05-09T02:31:12.231Z,954.42
2017-05-09T02:32:13.231Z,954.44
2017-05-09T02:33:12.496Z,954.40
2017-05-09T02:34:13.343Z,954.42
2017-05-09T02:35:10.909Z,954.46
2017-05-09T02:36:13.948Z,954.44
2017-05-09T02:37:13.911Z,954.41
2017-05-09T02:38:11.537Z,954.38
2017-05-09T02:39:10.908Z,954.37
2017-05-09T02:40:13.442Z,954.40
2017-05-09T02:41:12.980Z,954.36
2017-05-09T02:42:13.764Z,954.36
2017-05-09T02:43:11.961Z,954.33
2017-05-09T02:44:11.092Z,954.30
2017-05-09T02:45:13.262Z,954.38
2017-05-09T02:46:11.302Z,954.36
2017-05-09T02:47:12.633Z,954.36
2017-05-09T02:48:12.909Z,954.36
2017-05-09T02:49:12.563Z,954.32
2017-05-09T02:50:13.340Z,954.32
2017-05-09T02:51:12.820Z,954.30
2017-05-09T02:52:10.392Z,954.34
2017-05-09T02:53:12.517Z,954.33
2017-05-09T02:54:12.981Z,954.34
2017-05-09T02:55:12.549Z,954.32
2017-05-09T02:56:10.759Z,954.34
2017-05-09T02:57:12.922Z,954.31
2017-05-09T02:58:13.582Z,954.30
2017-05-09T02:59:13.288Z,954.29
2017-05-09T03:00:13.432Z,954.32
2017-05-09T03:01:15.136Z,954.31
2017-05-09T03:02:12.690Z,954.32
2017-05-09T03:03:13.421Z,954.33
2017-05-09T03:04:16.290Z,954.33
2017-05-09T03:05:13.380Z,954.33
2017-05-09T03:06:09.665Z,954.32
2017-05-09T03:07:13.978Z,954.30
2017-05-09T03:08:13.001Z,954.31
2017-05-09T03:09:12.884Z,954.29
2017-05-09T03:10:13.861Z,954.28
2017-05-09T03:11:10.933Z,954.31
2017-05-09T03:12:18.514Z,954.31
2017-05-09T03:13:12.742Z,954.30
2017-05-09T03:14:10.050Z,954.27
2017-05-09T03:15:13.332Z,954.27
2017-05-09T03:16:12.596Z,954.27
2017-05-09T03:17:11.932Z,954.30
2017-05-09T03:18:13.547Z,954.29
2017-05-09T03:19:13.259Z,954.31
2017-05-09T03:20:12.602Z,954.29
2017-05-09T03:21:12.741Z,954.30
2017-05-09T03:22:14.616Z,954.22
2017-05-09T03:23:13.025Z,954.24
2017-05-09T03:24:12.789Z,954.22
2017-05-09T03:25:10.556Z,954.30
2017-05-09T03:26:12.385Z,954.28
2017-05-09T03:27:12.923Z,954.27
2017-05-09T03:28:10.963Z,954.25
2017-05-09T03:29:12.204Z,954.27
2017-05-09T03:30:11.247Z,954.28
2017-05-09T03:31:12.600Z,954.31
2017-05-09T03:32:12.870Z,954.26
2017-05-09T03:33:13.496Z,954.25
2017-05-09T03:34:13.394Z,954.26
2017-05-09T03:35:14.487Z,954.23
2017-05-09T03:36:13.032Z,954.21
2017-05-09T03:37:13.480Z,954.21
2017-05-09T03:38:13.144Z,954.22
2017-05-09T03:39:11.329Z,954.19
2017-05-09T03:40:12.788Z,954.20
2017-05-09T03:41:12.507Z,954.20
2017-05-09T03:42:13.653Z,954.20
2017-05-09T03:43:13.402Z,954.20
2017-05-09T03:44:13.087Z,954.22
2017-05-09T03:45:12.514Z,954.20
2017-05-09T03:46:13.526Z,954.21
2017-05-09T03:47:13.043Z,954.23
2017-05-09T03:48:12.287Z,954.25
2017-05-09T03:49:13.275Z,954.16
2017-05-09T03:50:09.689Z,954.25
2017-05-09T03:51:12.832Z,954.14
2017-05-09T03:52:12.394Z,954.15
2017-05-09T03:53:11.702Z,954.19
2017-05-09T03:54:11.042Z,954.15
2017-05-09T03:55:11.532Z,954.19
2017-05-09T03:56:13.919Z,954.17
2017-05-09T03:57:14.203Z,954.19
2017-05-09T03:58:10.576Z,954.22
2017-05-09T03:59:12.587Z,954.25
2017-05-09T04:00:12.716Z,954.22
2017-05-09T04:01:13.044Z,954.16
2017-05-09T04:02:14.027Z,954.18
2017-05-09T04:03:13.315Z,954.19
2017-05-09T04:04:13.535Z,954.16
2017-05-09T04:05:12.795Z,954.19
2017-05-09T04:06:13.679Z,954.21
2017-05-09T04:07:13.031Z,954.23
2017-05-09T04:08:12.880Z,954.19
2017-05-09T04:09:10.480Z,954.22
2017-05-09T04:10:13.871Z,954.22
2017-05-09T04:11:13.644Z,954.21
2017-05-09T04:12:13.437Z,954.21
2017-05-09T04:13:12.622Z,954.25
2017-05-09T04:14:12.814Z,954.24
2017-05-09T04:15:12.456Z,954.28
2017-05-09T04:16:13.625Z,954.28
2017-05-09T04:17:13.344Z,954.26
2017-05-09T04:18:12.599Z,954.25
2017-05-09T04:19:11.371Z,954.26
2017-05-09T04:20:13.472Z,954.28
2017-05-09T04:21:15.543Z,954.29
2017-05-09T04:22:11.006Z,954.31
2017-05-09T04:23:13.088Z,954.34
2017-05-09T04:24:13.861Z,954.24
2017-05-09T04:25:13.810Z,954.29
2017-05-09T04:26:12.598Z,954.26
2017-05-09T04:27:11.411Z,954.27
2017-05-09T04:28:12.308Z,954.30
2017-05-09T04:29:13.125Z,954.31
2017-05-09T04:30:12.908Z,954.32
2017-05-09T04:31:12.770Z,954.32
2017-05-09T04:32:12.502Z,954.31
2017-05-09T04:33:12.696Z,954.32
2017-05-09T04:34:14.391Z,954.32
2017-05-09T04:35:12.541Z,954.30
2017-05-09T04:36:13.432Z,954.31
2017-05-09T04:37:13.269Z,954.31
2017-05-09T04:38:09.768Z,954.31
2017-05-09T04:39:11.143Z,954.34
2017-05-09T04:40:13.005Z,954.39
2017-05-09T04:41:12.184Z,954.35
2017-05-09T04:42:12.919Z,954.36
2017-05-09T04:43:12.799Z,954.35
2017-05-09T04:44:12.070Z,954.37
2017-05-09T04:45:12.772Z,954.36
2017-05-09T04:46:13.816Z,954.31
2017-05-09T04:47:12.521Z,954.32
2017-05-09T04:48:13.363Z,954.29
2017-05-09T04:49:12.397Z,954.31
2017-05-09T04:50:14.078Z,954.33
2017-05-09T04:51:12.078Z,954.30
2017-05-09T04:52:12.718Z,954.32
2017-05-09T04:53:12.842Z,954.34
2017-05-09T04:54:12.741Z,954.37
2017-05-09T04:55:14.158Z,954.30
2017-05-09T04:56:13.181Z,954.30
2017-05-09T04:57:10.523Z,954.28
2017-05-09T04:58:09.891Z,954.30
2017-05-09T04:59:12.594Z,954.27
2017-05-09T05:00:13.515Z,954.27
2017-05-09T05:01:12.707Z,954.24
2017-05-09T05:02:11.509Z,954.27
2017-05-09T05:03:11.958Z,954.25
2017-05-09T05:04:12.793Z,954.30
2017-05-09T05:05:09.987Z,954.27
2017-05-09T05:06:12.777Z,954.30
2017-05-09T05:07:12.106Z,954.35
2017-05-09T05:08:12.990Z,954.34
2017-05-09T05:09:13.087Z,954.34
2017-05-09T05:10:12.312Z,954.34
2017-05-09T05:11:11.036Z,954.33
2017-05-09T05:12:13.025Z,954.34
2017-05-09T05:13:13.218Z,954.33
2017-05-09T05:14:11.263Z,954.36
2017-05-09T05:15:13.068Z,954.34
2017-05-09T05:16:10.037Z,954.32
2017-05-09T05:17:12.508Z,954.28
2017-05-09T05:18:10.762Z,954.30
2017-05-09T05:19:12.581Z,954.32
2017-05-09T05:20:12.597Z,954.29
2017-05-09T05:21:11.271Z,954.27
2017-05-09T05:22:10.894Z,954.27
2017-05-09T05:23:13.009Z,954.28
2017-05-09T05:24:10.190Z,954.29
2017-05-09T05:25:13.387Z,954.26
2017-05-09T05:26:12.942Z,954.32
2017-05-09T05:27:12.524Z,954.28
2017-05-09T05:28:11.366Z,954.29
2017-05-09T05:29:13.696Z,954.28
2017-05-09T05:30:13.937Z,954.26
2017-05-09T05:31:14.564Z,954.28
2017-05-09T05:32:13.309Z,954.26
2017-05-09T05:33:14.188Z,954.27
2017-05-09T05:34:13.414Z,954.27
2017-05-09T05:35:11.138Z,954.30
2017-05-09T05:36:12.792Z,954.30
2017-05-09T05:37:12.797Z,954.32
2017-05-09T05:38:12.667Z,954.27
2017-05-09T05:39:14.509Z,954.28
2017-05-09T05:40:14.244Z,954.33
2017-05-09T05:41:12.999Z,954.31
2017-05-09T05:42:12.452Z,954.27
2017-05-09T05:43:13.306Z,954.28
2017-05-09T05:44:11.090Z,954.27
2017-05-09T05:45:13.512Z,954.28
2017-05-09T05:46:13.341Z,954.29
2017-05-09T05:47:13.268Z,954.27
2017-05-09T05:48:13.005Z,954.31
2017-05-09T05:49:12.816Z,954.31
2017-05-09T05:50:12.776Z,954.31
2017-05-09T05:51:11.994Z,954.28
2017-05-09T05:52:13.518Z,954.31
2017-05-09T05:53:13.359Z,954.30
2017-05-09T05:54:13.011Z,954.27
2017-05-09T05:55:12.536Z,954.29
2017-05-09T05:56:14.353Z,954.30
2017-05-09T05:57:10.098Z,954.34
2017-05-09T05:58:12.849Z,954.30
2017-05-09T05:59:13.003Z,954.34
2017-05-09T06:00:12.722Z,954.27
2017-05-09T06:01:13.234Z,954.32
2017-05-09T06:02:13.343Z,954.32
2017-05-09T06:03:12.727Z,954.31
2017-05-09T06:04:13.552Z,954.34
2017-05-09T06:05:13.442Z,954.27
2017-05-09T06:06:13.474Z,954.32
2017-05-09T06:07:13.591Z,954.32
2017-05-09T06:08:14.580Z,954.29
2017-05-09T06:09:13.349Z,954.33
2017-05-09T06:10:10.592Z,954.32
2017-05-09T06:11:12.690Z,954.33
2017-05-09T06:12:12.802Z,954.29
2017-05-09T06:13:12.097Z,954.32
2017-05-09T06:14:12.749Z,954.35
2017-05-09T06:15:12.600Z,954.33
2017-05-09T06:16:11.359Z,954.32
2017-05-09T06:17:13.678Z,954.31
2017-05-09T06:18:11.945Z,954.32
2017-05-09T06:19:12.655Z,954.33
2017-05-09T06:20:12.643Z,954.33
2017-05-09T06:21:13.417Z,954.34
2017-05-09T06:22:14.256Z,954.31
2017-05-09T06:23:11.897Z,954.34
2017-05-09T06:24:12.901Z,954.31
2017-05-09T06:25:12.650Z,954.32
2017-05-09T06:26:11.414Z,954.31
2017-05-09T06:27:13.592Z,954.29
2017-05-09T06:28:13.913Z,954.30
2017-05-09T06:29:12.009Z,954.38
2017-05-09T06:30:12.472Z,954.30
2017-05-09T06:31:12.231Z,954.31
2017-05-09T06:32:10.843Z,954.33
2017-05-09T06:33:18.723Z,954.34
2017-05-09T06:34:12.975Z,954.37
2017-05-09T06:35:10.391Z,954.34
2017-05-09T06:36:12.624Z,954.38
2017-05-09T06:37:13.149Z,954.39
2017-05-09T06:38:10.885Z,954.37
2017-05-09T06:39:12.651Z,954.35
2017-05-09T06:40:10.748Z,954.35
2017-05-09T06:41:12.461Z,954.39
2017-05-09T06:42:11.105Z,954.43
2017-05-09T06:43:09.908Z,954.42
2017-05-09T06:44:12.785Z,954.42
2017-05-09T06:45:12.798Z,954.46
2017-05-09T06:46:10.924Z,954.48
2017-05-09T06:47:13.125Z,954.48
2017-05-09T06:48:12.534Z,954.48
2017-05-09T06:49:10.469Z,954.47
2017-05-09T06:50:12.402Z,954.44
2017-05-09T06:51:12.344Z,954.48
2017-05-09T06:52:12.415Z,954.46
2017-05-09T06:53:11.050Z,954.49
2017-05-09T06:54:12.531Z,954.43
2017-05-09T06:55:11.733Z,954.44
2017-05-09T06:56:12.839Z,954.47
2017-05-09T06:57:12.621Z,954.44
2017-05-09T06:58:09.954Z,954.44
2017-05-09T06:59:12.469Z,954.43
2017-05-09T07:00:13.365Z,954.46
2017-05-09T07:01:13.065Z,954.49
2017-05-09T07:02:11.011Z,954.45
2017-05-09T07:03:12.757Z,954.53
2017-05-09T07:04:10.810Z,954.48
2017-05-09T07:05:12.575Z,954.50
2017-05-09T07:06:13.427Z,954.51
2017-05-09T07:07:12.555Z,954.50
2017-05-09T07:08:12.731Z,954.50
2017-05-09T07:09:12.869Z,954.47
2017-05-09T07:10:10.024Z,954.50
2017-05-09T07:11:10.318Z,954.46
2017-05-09T07:12:13.111Z,954.45
2017-05-09T07:13:13.024Z,954.45
2017-05-09T07:14:12.516Z,954.47
2017-05-09T07:15:12.943Z,954.47
2017-05-09T07:16:12.389Z,954.49
2017-05-09T07:17:13.071Z,954.49
2017-05-09T07:18:12.764Z,954.46
2017-05-09T07:19:12.420Z,954.49
2017-05-09T07:20:10.762Z,954.49
2017-05-09T07:21:12.043Z,954.48
2017-05-09T07:22:12.812Z,954.48
2017-05-09T07:23:14.637Z,954.48
2017-05-09T07:24:14.472Z,954.48
2017-05-09T07:25:12.990Z,954.44
2017-05-09T07:26:12.838Z,954.44
2017-05-09T07:27:14.140Z,954.46
2017-05-09T07:28:12.465Z,954.46
2017-05-09T07:29:15.341Z,954.46
2017-05-09T07:30:14.246Z,954.47
2017-05-09T07:31:12.663Z,954.47
2017-05-09T07:32:10.864Z,954.45
2017-05-09T07:33:09.441Z,954.48
2017-05-09T07:34:13.662Z,954.50
2017-05-09T07:35:13.202Z,954.47
2017-05-09T07:36:13.832Z,954.46
2017-05-09T07:37:11.064Z,954.46
2017-05-09T07:38:12.471Z,954.47
2017-05-09T07:39:13.599Z,954.46
2017-05-09T07:40:13.371Z,954.48
2017-05-09T07:41:12.602Z,954.49
2017-05-09T07:42:14.307Z,954.47
2017-05-09T07:43:11.427Z,954.49
2017-05-09T07:44:12.924Z,954.48
2017-05-09T07:45:12.974Z,954.45
2017-05-09T07:46:12.427Z,954.45
2017-05-09T07:47:13.303Z,954.50
2017-05-09T07:48:13.944Z,954.45
2017-05-09T07:49:13.186Z,954.48
2017-05-09T07:50:13.481Z,954.48
2017-05-09T07:51:15.444Z,954.49
2017-05-09T07:52:13.613Z,954.46
2017-05-09T07:53:13.878Z,954.47
2017-05-09T07:54:12.833Z,954.48
2017-05-09T07:55:12.024Z,954.44
2017-05-09T07:56:12.885Z,954.47
2017-05-09T07:57:09.350Z,954.47
2017-05-09T07:58:13.439Z,954.42
2017-05-09T07:59:11.668Z,954.41
2017-05-09T08:00:13.594Z,954.43
2017-05-09T08:01:13.501Z,954.46
2017-05-09T08:02:11.364Z,954.49
2017-05-09T08:03:10.867Z,954.45
2017-05-09T08:04:11.426Z,954.47
2017-05-09T08:05:14.333Z,954.46
2017-05-09T08:06:13.416Z,954.46
2017-05-09T08:07:11.073Z,954.45
2017-05-09T08:08:12.443Z,954.49
2017-05-09T08:09:09.716Z,954.48
2017-05-09T08:10:14.337Z,954.47
2017-05-09T08:11:13.274Z,954.49
2017-05-09T08:12:10.930Z,954.47
2017-05-09T08:13:12.374Z,954.48
2017-05-09T08:14:14.583Z,954.48
2017-05-09T08:15:10.834Z,954.50
2017-05-09T08:16:10.926Z,954.49
2017-05-09T08:17:13.086Z,954.47
2017-05-09T08:18:12.253Z,954.53
2017-05-09T08:19:13.107Z,954.55
2017-05-09T08:20:12.956Z,954.51
2017-05-09T08:21:12.582Z,954.51
2017-05-09T08:22:11.362Z,954.53
2017-05-09T08:23:11.068Z,954.49
2017-05-09T08:24:10.418Z,954.50
2017-05-09T08:25:12.843Z,954.51
2017-05-09T08:26:14.532Z,954.52
2017-05-09T08:27:12.585Z,954.58
2017-05-09T08:28:14.839Z,954.57
2017-05-09T08:29:12.629Z,954.54
2017-05-09T08:30:11.336Z,954.58
2017-05-09T08:31:12.659Z,954.55
2017-05-09T08:32:12.995Z,954.55
2017-05-09T08:33:10.738Z,954.58
2017-05-09T08:34:12.835Z,954.60
2017-05-09T08:35:12.695Z,954.57
2017-05-09T08:36:11.920Z,954.51
2017-05-09T08:37:12.373Z,954.58
2017-05-09T08:38:12.951Z,954.57
2017-05-09T08:39:12.070Z,954.60
2017-05-09T08:40:12.541Z,954.55
2017-05-09T08:41:13.564Z,954.53
2017-05-09T08:42:12.774Z,954.55
2017-05-09T08:43:12.577Z,954.51
2017-05-09T08:44:11.496Z,954.53
2017-05-09T08:45:13.147Z,954.56
2017-05-09T08:46:12.394Z,954.58
2017-05-09T08:47:13.043Z,954.56
2017-05-09T08:48:14.950Z,954.62
2017-05-09T08:49:13.134Z,954.58
2017-05-09T08:50:13.092Z,954.58
2017-05-09T08:51:12.904Z,954.60
2017-05-09T08:52:12.409Z,954.61
2017-05-09T08:53:13.091Z,954.57
2017-05-09T08:54:12.639Z,954.64
2017-05-09T08:55:11.625Z,954.60
2017-05-09T08:56:11.810Z,954.65
2017-05-09T08:57:13.087Z,954.64
2017-05-09T08:58:12.814Z,954.66
2017-05-09T08:59:12.416Z,954.65
2017-05-09T09:00:12.599Z,954.65
2017-05-09T09:01:13.387Z,954.63
2017-05-09T09:02:11.184Z,954.63
2017-05-09T09:03:13.309Z,954.65
2017-05-09T09:04:12.555Z,954.63
2017-05-09T09:05:12.560Z,954.64
2017-05-09T09:06:11.040Z,954.67
2017-05-09T09:07:12.379Z,954.65
2017-05-09T09:08:10.807Z,954.68
2017-05-09T09:09:12.553Z,954.66
2017-05-09T09:10:12.611Z,954.68
2017-05-09T09:11:13.212Z,954.67
2017-05-09T09:12:12.255Z,954.64
2017-05-09T09:13:10.913Z,954.66
2017-05-09T09:14:13.989Z,954.60
2017-05-09T09:15:12.728Z,954.54
2017-05-09T09:16:13.012Z,954.60
2017-05-09T09:17:11.086Z,954.59
2017-05-09T09:18:13.035Z,954.59
2017-05-09T09:19:12.502Z,954.58
2017-05-09T09:20:12.774Z,954.64
2017-05-09T09:21:12.593Z,954.61
2017-05-09T09:22:13.232Z,954.56
2017-05-09T09:23:11.091Z,954.51
2017-05-09T09:24:13.473Z,954.52
2017-05-09T09:25:13.941Z,954.59
2017-05-09T09:26:10.222Z,954.57
2017-05-09T09:27:11.086Z,954.56
2017-05-09T09:28:12.650Z,954.60
2017-05-09T09:29:13.562Z,954.59
2017-05-09T09:30:12.953Z,954.55
2017-05-09T09:31:12.885Z,954.50
2017-05-09T09:32:13.540Z,954.52
2017-05-09T09:33:13.255Z,954.53
2017-05-09T09:34:12.466Z,954.53
2017-05-09T09:35:12.746Z,954.56
2017-05-09T09:36:13.544Z,954.59
2017-05-09T09:37:12.777Z,954.53
2017-05-09T09:38:10.124Z,954.54
2017-05-09T09:39:09.431Z,954.52
2017-05-09T09:40:13.795Z,954.56
2017-05-09T09:41:13.152Z,954.53
2017-05-09T09:42:11.210Z,954.48
2017-05-09T09:43:11.266Z,954.53
2017-05-09T09:44:15.024Z,954.53
2017-05-09T09:45:13.026Z,954.55
2017-05-09T09:46:09.531Z,954.54
2017-05-09T09:47:13.413Z,954.50
2017-05-09T09:48:12.391Z,954.55
2017-05-09T09:49:14.245Z,954.52
2017-05-09T09:50:12.780Z,954.53
2017-05-09T09:51:12.382Z,954.52
2017-05-09T09:52:10.574Z,954.46
2017-05-09T09:53:10.287Z,954.47
2017-05-09T09:54:12.823Z,954.50
2017-05-09T09:55:12.423Z,954.53
2017-05-09T09:56:12.630Z,954.55
2017-05-09T09:57:13.633Z,954.50
2017-05-09T09:58:13.361Z,954.52
2017-05-09T09:59:12.612Z,954.52
2017-05-09T10:00:12.798Z,954.53
2017-05-09T10:01:09.686Z,954.54
2017-05-09T10:02:12.282Z,954.51
2017-05-09T10:03:12.732Z,954.51
2017-05-09T10:04:12.845Z,954.50
2017-05-09T10:05:12.575Z,954.51
2017-05-09T10:06:13.443Z,954.49
2017-05-09T10:07:11.839Z,954.50
2017-05-09T10:08:12.584Z,954.51
2017-05-09T10:09:13.002Z,954.53
2017-05-09T10:10:13.063Z,954.50
2017-05-09T10:11:13.662Z,954.55
2017-05-09T10:12:12.904Z,954.56
2017-05-09T10:13:10.826Z,954.53
2017-05-09T10:14:14.826Z,954.52
2017-05-09T10:15:12.574Z,954.55
2017-05-09T10:16:11.348Z,954.49
2017-05-09T10:17:13.267Z,954.45
2017-05-09T10:18:11.443Z,954.47
2017-05-09T10:19:12.829Z,954.49
2017-05-09T10:20:14.135Z,954.52
2017-05-09T10:21:13.461Z,954.51
2017-05-09T10:22:13.565Z,954.43
2017-05-09T10:23:13.737Z,954.41
2017-05-09T10:24:14.969Z,954.40
2017-05-09T10:25:12.140Z,954.41
2017-05-09T10:26:11.227Z,954.41
2017-05-09T10:27:11.431Z,954.43
2017-05-09T10:28:11.702Z,954.43
2017-05-09T10:29:11.871Z,954.41
2017-05-09T10:30:11.022Z,954.43
2017-05-09T10:31:12.653Z,954.38
2017-05-09T10:32:13.370Z,954.37
2017-05-09T10:33:12.986Z,954.38
2017-05-09T10:34:13.132Z,954.36
2017-05-09T10:35:12.985Z,954.33
2017-05-09T10:36:12.784Z,954.34
2017-05-09T10:37:12.529Z,954.33
2017-05-09T10:38:12.693Z,954.29
2017-05-09T10:39:13.501Z,954.29
2017-05-09T10:40:12.784Z,954.31
2017-05-09T10:41:12.282Z,954.30
2017-05-09T10:42:12.467Z,954.34
2017-05-09T10:43:12.753Z,954.30
2017-05-09T10:44:12.226Z,954.28
2017-05-09T10:45:09.649Z,954.28
2017-05-09T10:46:13.337Z,954.28
2017-05-09T10:47:11.180Z,954.31
2017-05-09T10:48:10.920Z,954.28
2017-05-09T10:49:12.617Z,954.29
2017-05-09T10:50:13.537Z,954.33
2017-05-09T10:51:13.241Z,954.31
2017-05-09T10:52:13.287Z,954.29
2017-05-09T10:53:13.134Z,954.33
2017-05-09T10:54:13.086Z,954.30
2017-05-09T10:55:12.506Z,954.29
2017-05-09T10:56:12.630Z,954.29
2017-05-09T10:57:13.081Z,954.24
2017-05-09T10:58:12.569Z,954.23
2017-05-09T10:59:13.302Z,954.21
2017-05-09T11:00:12.554Z,954.22
2017-05-09T11:01:12.781Z,954.19
2017-05-09T11:02:10.916Z,954.19
2017-05-09T11:03:12.354Z,954.21
2017-05-09T11:04:10.195Z,954.21
2017-05-09T11:05:09.967Z,954.20
2017-05-09T11:06:11.084Z,954.17
2017-05-09T11:07:14.050Z,954.13
2017-05-09T11:08:09.701Z,954.19
2017-05-09T11:09:12.239Z,954.20
2017-05-09T11:10:12.777Z,954.15
2017-05-09T11:11:12.241Z,954.22
2017-05-09T11:12:12.980Z,954.20
2017-05-09T11:13:12.558Z,954.15
2017-05-09T11:14:11.457Z,954.17
2017-05-09T11:15:13.462Z,954.14
2017-05-09T11:16:10.050Z,954.12
2017-05-09T11:17:12.466Z,954.11
2017-05-09T11:18:12.627Z,954.07
2017-05-09T11:19:10.744Z,954.06
2017-05-09T11:20:12.349Z,954.04
2017-05-09T11:21:13.757Z,954.06
2017-05-09T11:22:10.961Z,954.09
2017-05-09T11:23:11.957Z,954.06
2017-05-09T11:24:12.623Z,954.09
2017-05-09T11:25:14.255Z,954.04
2017-05-09T11:26:12.625Z,954.02
2017-05-09T11:27:13.883Z,954.06
2017-05-09T11:28:13.032Z,953.99
2017-05-09T11:29:12.805Z,954.00
2017-05-09T11:30:12.521Z,954.04
2017-05-09T11:31:11.673Z,953.98
2017-05-09T11:32:13.733Z,953.96
2017-05-09T11:33:12.990Z,953.96
2017-05-09T11:34:11.116Z,953.96
2017-05-09T11:35:11.027Z,953.92
2017-05-09T11:36:14.048Z,953.95
2017-05-09T11:37:14.685Z,953.95
2017-05-09T11:38:12.825Z,953.91
2017-05-09T11:39:13.055Z,953.94
2017-05-09T11:40:16.264Z,953.90
2017-05-09T11:41:13.001Z,953.89
2017-05-09T11:42:12.422Z,953.86
2017-05-09T11:43:10.114Z,953.86
2017-05-09T11:44:13.001Z,953.83
2017-05-09T11:45:12.561Z,953.79
2017-05-09T11:46:13.242Z,953.79
2017-05-09T11:47:12.564Z,953.80
2017-05-09T11:48:12.880Z,953.82
2017-05-09T11:49:12.807Z,953.83
2017-05-09T11:50:12.225Z,953.81
2017-05-09T11:51:10.516Z,953.82
2017-05-09T11:52:13.636Z,953.81
2017-05-09T11:53:13.740Z,953.82
2017-05-09T11:54:13.962Z,953.85
2017-05-09T11:55:12.709Z,953.85
2017-05-09T11:56:13.443Z,953.85
2017-05-09T11:57:12.857Z,953.83
2017-05-09T11:58:12.052Z,953.85
2017-05-09T11:59:12.672Z,953.87
2017-05-09T12:00:10.648Z,953.86
2017-05-09T12:01:11.054Z,953.88
2017-05-09T12:02:12.348Z,953.89
2017-05-09T12:03:12.613Z,953.93
2017-05-09T12:04:12.993Z,953.89
2017-05-09T12:05:12.947Z,953.89
2017-05-09T12:06:13.661Z,953.95
2017-05-09T12:07:11.900Z,953.94
2017-05-09T12:08:13.022Z,953.97
2017-05-09T12:09:12.810Z,953.94
2017-05-09T12:10:11.033Z,953.95
2017-05-09T12:11:13.337Z,953.94
2017-05-09T12:12:12.387Z,953.92
2017-05-09T12:13:11.254Z,953.94
2017-05-09T12:14:12.940Z,953.87
2017-05-09T12:15:12.357Z,953.84
2017-05-09T12:16:10.702Z,953.80
2017-05-09T12:17:12.215Z,953.79
2017-05-09T12:18:12.962Z,953.82
2017-05-09T12:19:11.016Z,953.82
2017-05-09T12:20:12.773Z,953.83
2017-05-09T12:21:10.813Z,953.79
2017-05-09T12:22:13.773Z,953.86
2017-05-09T12:23:10.721Z,953.85
2017-05-09T12:24:13.996Z,953.88
2017-05-09T12:25:13.023Z,953.87
2017-05-09T12:26:15.327Z,953.85
2017-05-09T12:27:12.794Z,953.85
2017-05-09T12:28:13.831Z,953.85